createdAt,value
2022-10-23T00:00:53.966Z,13.60
2022-10-23T00:01:53.942Z,13.60
2022-10-23T00:02:53.999Z,12.40
2022-10-23T00:03:53.951Z,18.10
2022-10-23T00:04:53.921Z,17.40
2022-10-23T00:05:54.023Z,24.50
2022-10-23T00:06:53.901Z,15.40
2022-10-23T00:07:54.151Z,12.70
2022-10-23T00:08:53.883Z,15.40
2022-10-23T00:09:53.968Z,14.60
2022-10-23T00:10:53.869Z,11.80
2022-10-23T00:11:53.980Z,17.40
2022-10-23T00:12:53.851Z,15.50
2022-10-23T00:13:53.842Z,17.30
2022-10-23T00:14:53.808Z,22.60
2022-10-23T00:15:53.833Z,14.50
2022-10-23T00:16:53.779Z,12.00
2022-10-23T00:17:53.769Z,16.80
2022-10-23T00:18:53.800Z,12.80
2022-10-23T00:19:53.751Z,16.00
2022-10-23T00:20:53.739Z,16.80
2022-10-23T00:21:53.730Z,15.90
2022-10-23T00:22:53.720Z,13.70
2022-10-23T00:23:53.704Z,18.90
2022-10-23T00:24:53.710Z,14.60
2022-10-23T00:25:53.699Z,16.20
2022-10-23T00:26:53.702Z,12.00
2022-10-23T00:27:53.677Z,15.40
2022-10-23T00:28:53.674Z,14.10
2022-10-23T00:29:53.675Z,16.70
2022-10-23T00:30:54.110Z,17.00
2022-10-23T00:31:53.823Z,16.30
2022-10-23T00:32:53.824Z,16.50
2022-10-23T00:33:53.583Z,19.50
2022-10-23T00:34:53.589Z,14.90
2022-10-23T00:35:53.578Z,12.50
2022-10-23T00:36:53.568Z,12.80
2022-10-23T00:37:53.546Z,19.90
2022-10-23T00:38:53.561Z,15.60
2022-10-23T00:39:53.539Z,16.00
2022-10-23T00:40:53.872Z,16.80
2022-10-23T00:41:53.497Z,14.30
2022-10-23T00:42:53.538Z,14.70
2022-10-23T00:43:54.097Z,15.10
2022-10-23T00:44:53.491Z,14.40
2022-10-23T00:45:53.528Z,15.20
2022-10-23T00:46:53.499Z,19.20
2022-10-23T00:47:53.419Z,18.30
2022-10-23T00:48:53.465Z,18.40
2022-10-23T00:49:53.414Z,14.50
2022-10-23T00:50:53.468Z,18.40
2022-10-23T00:51:53.537Z,17.40
2022-10-23T00:52:53.647Z,16.80
2022-10-23T00:54:01.378Z,22.90
2022-10-23T00:54:54.358Z,17.30
2022-10-23T00:55:53.339Z,14.40
2022-10-23T00:56:53.341Z,15.20
2022-10-23T00:57:53.337Z,18.40
2022-10-23T00:58:53.328Z,13.00
2022-10-23T00:59:53.296Z,17.20
2022-10-23T01:00:53.291Z,20.00
2022-10-23T01:01:53.370Z,18.30
2022-10-23T01:02:53.317Z,21.10
2022-10-23T01:03:53.237Z,17.10
2022-10-23T01:04:53.250Z,19.60
2022-10-23T01:05:53.256Z,18.80
2022-10-23T01:06:53.225Z,19.60
2022-10-23T01:07:53.199Z,18.90
2022-10-23T01:08:53.223Z,22.80
2022-10-23T01:09:53.202Z,15.70
2022-10-23T01:10:53.197Z,19.00
2022-10-23T01:11:53.568Z,24.30
2022-10-23T01:12:53.282Z,16.60
2022-10-23T01:13:53.311Z,17.60
2022-10-23T01:14:53.159Z,17.20
2022-10-23T01:15:53.117Z,17.10
2022-10-23T01:16:53.106Z,18.20
2022-10-23T01:17:53.087Z,17.70
2022-10-23T01:18:53.862Z,17.40
2022-10-23T01:19:53.080Z,15.40
2022-10-23T01:20:53.067Z,18.20
2022-10-23T01:21:53.037Z,15.80
2022-10-23T01:22:53.137Z,19.20
2022-10-23T01:23:53.136Z,17.80
2022-10-23T01:24:53.147Z,19.20
2022-10-23T01:25:52.997Z,17.20
2022-10-23T01:26:53.007Z,18.10
2022-10-23T01:27:53.020Z,16.50
2022-10-23T01:28:52.984Z,13.60
2022-10-23T01:29:53.186Z,17.40
2022-10-23T01:30:53.195Z,14.00
2022-10-23T01:31:52.996Z,16.80
2022-10-23T01:32:53.016Z,16.90
2022-10-23T01:33:53.027Z,14.80
2022-10-23T01:34:53.215Z,12.40
2022-10-23T01:35:53.265Z,12.80
2022-10-23T01:36:52.886Z,13.70
2022-10-23T01:37:52.935Z,18.00
2022-10-23T01:38:52.880Z,17.70
2022-10-23T01:39:52.846Z,16.60
2022-10-23T01:40:52.844Z,16.80
2022-10-23T01:41:52.853Z,15.90
2022-10-23T01:42:52.835Z,23.20
2022-10-23T01:43:52.795Z,16.30
2022-10-23T01:44:52.795Z,15.20
2022-10-23T01:45:52.772Z,15.80
2022-10-23T01:46:53.205Z,15.40
2022-10-23T01:47:53.222Z,15.20
2022-10-23T01:48:52.755Z,13.10
2022-10-23T01:49:52.734Z,17.60
2022-10-23T01:50:52.732Z,17.80
2022-10-23T01:51:53.325Z,14.20
2022-10-23T01:52:53.235Z,12.30
2022-10-23T01:53:53.038Z,16.80
2022-10-23T01:54:53.057Z,14.90
2022-10-23T01:55:53.293Z,15.20
2022-10-23T01:56:52.682Z,19.00
2022-10-23T01:57:52.664Z,14.20
2022-10-23T01:58:52.651Z,14.50
2022-10-23T01:59:52.622Z,18.00
2022-10-23T02:00:52.613Z,15.10
2022-10-23T02:01:52.975Z,15.90
2022-10-23T02:02:52.592Z,17.40
2022-10-23T02:03:52.956Z,12.70
2022-10-23T02:04:53.026Z,13.50
2022-10-23T02:05:52.551Z,16.50
2022-10-23T02:06:52.545Z,18.50
2022-10-23T02:07:52.530Z,11.90
2022-10-23T02:08:52.536Z,16.50
2022-10-23T02:09:52.549Z,15.00
2022-10-23T02:10:52.495Z,10.70
2022-10-23T02:11:52.555Z,15.00
2022-10-23T02:12:52.565Z,14.50
2022-10-23T02:13:52.483Z,15.30
2022-10-23T02:14:52.613Z,12.10
2022-10-23T02:15:52.473Z,13.80
2022-10-23T02:16:52.501Z,14.70
2022-10-23T02:17:52.412Z,14.60
2022-10-23T02:18:52.419Z,13.50
2022-10-23T02:19:52.373Z,13.70
2022-10-23T02:20:52.384Z,11.10
2022-10-23T02:21:52.393Z,14.80
2022-10-23T02:22:52.389Z,12.50
2022-10-23T02:23:55.252Z,16.20
2022-10-23T02:24:52.325Z,17.90
2022-10-23T02:25:52.322Z,13.40
2022-10-23T02:26:52.313Z,16.70
2022-10-23T02:27:52.764Z,18.50
2022-10-23T02:28:52.318Z,14.10
2022-10-23T02:29:52.301Z,14.10
2022-10-23T02:30:52.273Z,21.60
2022-10-23T02:31:52.490Z,14.20
2022-10-23T02:32:52.802Z,12.90
2022-10-23T02:33:52.300Z,14.60
2022-10-23T02:34:52.222Z,14.80
2022-10-23T02:35:52.320Z,17.50
2022-10-23T02:36:52.191Z,13.70
2022-10-23T02:37:52.194Z,12.60
2022-10-23T02:38:52.532Z,13.70
2022-10-23T02:39:52.167Z,13.80
2022-10-23T02:40:52.144Z,13.30
2022-10-23T02:41:52.151Z,13.10
2022-10-23T02:42:52.134Z,13.90
2022-10-23T02:43:52.130Z,15.80
2022-10-23T02:44:52.106Z,13.30
2022-10-23T02:45:52.106Z,18.10
2022-10-23T02:46:52.071Z,19.60
2022-10-23T02:47:52.087Z,18.80
2022-10-23T02:48:52.050Z,18.90
2022-10-23T02:49:52.223Z,14.90
2022-10-23T02:50:52.045Z,16.40
2022-10-23T02:51:52.031Z,18.90
2022-10-23T02:52:52.003Z,16.00
2022-10-23T02:53:52.091Z,13.80
2022-10-23T02:54:52.131Z,13.50
2022-10-23T02:55:52.049Z,13.60
2022-10-23T02:56:52.152Z,11.60
2022-10-23T02:57:51.960Z,14.90
2022-10-23T02:58:51.941Z,14.70
2022-10-23T02:59:51.953Z,15.80
2022-10-23T03:00:52.070Z,16.50
2022-10-23T03:01:51.998Z,12.40
2022-10-23T03:02:51.899Z,16.70
2022-10-23T03:03:51.906Z,16.60
2022-10-23T03:04:51.882Z,16.50
2022-10-23T03:05:51.880Z,17.30
2022-10-23T03:06:52.110Z,15.90
2022-10-23T03:07:51.871Z,13.30
2022-10-23T03:08:51.832Z,18.50
2022-10-23T03:09:51.838Z,16.70
2022-10-23T03:10:51.818Z,14.90
2022-10-23T03:11:51.955Z,13.70
2022-10-23T03:12:52.052Z,13.50
2022-10-23T03:13:52.059Z,16.50
2022-10-23T03:14:52.063Z,13.10
2022-10-23T03:15:51.969Z,11.80
2022-10-23T03:16:51.977Z,12.90
2022-10-23T03:17:51.790Z,14.60
2022-10-23T03:18:51.720Z,13.00
2022-10-23T03:19:51.730Z,13.70
2022-10-23T03:20:51.692Z,14.30
2022-10-23T03:21:51.700Z,13.70
2022-10-23T03:22:51.718Z,16.50
2022-10-23T03:23:51.679Z,13.90
2022-10-23T03:24:51.835Z,14.80
2022-10-23T03:25:51.666Z,15.30
2022-10-23T03:26:51.647Z,13.40
2022-10-23T03:27:51.714Z,15.60
2022-10-23T03:28:51.612Z,13.40
2022-10-23T03:29:51.609Z,15.00
2022-10-23T03:30:51.610Z,11.90
2022-10-23T03:31:51.591Z,10.70
2022-10-23T03:32:51.561Z,11.40
2022-10-23T03:33:51.598Z,17.00
2022-10-23T03:34:52.019Z,14.10
2022-10-23T03:35:51.614Z,11.50
2022-10-23T03:36:51.609Z,12.80
2022-10-23T03:37:51.568Z,14.00
2022-10-23T03:38:51.528Z,15.30
2022-10-23T03:39:51.666Z,11.60
2022-10-23T03:40:51.488Z,13.00
2022-10-23T03:41:51.490Z,10.80
2022-10-23T03:42:51.465Z,12.10
2022-10-23T03:43:51.500Z,12.30
2022-10-23T03:44:51.449Z,17.40
2022-10-23T03:45:51.443Z,11.80
2022-10-23T03:46:51.419Z,15.30
2022-10-23T03:47:51.419Z,16.00
2022-10-23T03:48:51.408Z,11.70
2022-10-23T03:49:51.401Z,11.90
2022-10-23T03:50:51.368Z,12.50
2022-10-23T03:51:51.382Z,12.40
2022-10-23T03:52:51.452Z,8.50
2022-10-23T03:53:51.372Z,10.80
2022-10-23T03:54:51.338Z,13.70
2022-10-23T03:55:51.363Z,13.70
2022-10-23T03:56:53.728Z,14.50
2022-10-23T03:57:52.586Z,10.20
2022-10-23T03:58:51.448Z,10.80
2022-10-23T03:59:51.290Z,13.30
2022-10-23T04:00:51.268Z,14.50
2022-10-23T04:01:51.411Z,10.20
2022-10-23T04:02:51.247Z,11.40
2022-10-23T04:03:51.308Z,14.60
2022-10-23T04:04:51.224Z,11.40
2022-10-23T04:05:52.322Z,11.00
2022-10-23T04:06:51.407Z,9.80
2022-10-23T04:07:51.187Z,12.80
2022-10-23T04:08:51.167Z,14.60
2022-10-23T04:09:51.206Z,12.40
2022-10-23T04:10:51.166Z,10.40
2022-10-23T04:11:51.146Z,13.00
2022-10-23T04:12:51.139Z,12.90
2022-10-23T04:13:51.128Z,11.80
2022-10-23T04:14:51.106Z,11.00
2022-10-23T04:15:51.169Z,14.60
2022-10-23T04:16:51.096Z,10.90
2022-10-23T04:17:51.171Z,10.20
2022-10-23T04:18:51.078Z,12.90
2022-10-23T04:19:51.067Z,13.60
2022-10-23T04:20:51.047Z,10.80
2022-10-23T04:21:51.047Z,8.60
2022-10-23T04:22:51.026Z,10.90
2022-10-23T04:23:51.038Z,11.20
2022-10-23T04:24:50.989Z,10.10
2022-10-23T04:25:51.241Z,10.90
2022-10-23T04:26:50.967Z,10.80
2022-10-23T04:27:50.967Z,10.80
2022-10-23T04:28:50.964Z,9.30
2022-10-23T04:29:53.256Z,10.90
2022-10-23T04:30:50.924Z,12.50
2022-10-23T04:31:50.944Z,12.20
2022-10-23T04:32:50.914Z,12.60
2022-10-23T04:33:50.896Z,10.20
2022-10-23T04:34:51.187Z,17.70
2022-10-23T04:35:51.421Z,9.90
2022-10-23T04:36:51.105Z,10.50
2022-10-23T04:37:51.116Z,11.10
2022-10-23T04:38:50.844Z,12.20
2022-10-23T04:39:50.851Z,13.40
2022-10-23T04:40:50.943Z,13.40
2022-10-23T04:41:50.867Z,15.20
2022-10-23T04:42:50.788Z,10.90
2022-10-23T04:43:50.839Z,11.30
2022-10-23T04:44:50.775Z,16.80
2022-10-23T04:45:50.829Z,10.70
2022-10-23T04:46:50.786Z,12.00
2022-10-23T04:47:50.765Z,11.00
2022-10-23T04:48:50.743Z,8.30
2022-10-23T04:49:50.749Z,12.80
2022-10-23T04:50:50.725Z,11.70
2022-10-23T04:51:50.704Z,9.80
2022-10-23T04:52:50.684Z,14.80
2022-10-23T04:53:50.685Z,9.80
2022-10-23T04:54:50.674Z,12.90
2022-10-23T04:55:50.686Z,11.20
2022-10-23T04:56:50.654Z,10.90
2022-10-23T04:57:50.764Z,12.90
2022-10-23T04:58:50.766Z,16.00
2022-10-23T04:59:50.757Z,9.90
2022-10-23T05:00:50.633Z,13.80
2022-10-23T05:01:50.652Z,11.90
2022-10-23T05:02:50.582Z,9.90
2022-10-23T05:03:50.564Z,9.70
2022-10-23T05:04:50.585Z,9.20
2022-10-23T05:05:50.565Z,15.40
2022-10-23T05:06:50.589Z,13.40
2022-10-23T05:07:50.531Z,11.40
2022-10-23T05:08:50.726Z,11.80
2022-10-23T05:09:50.935Z,7.60
2022-10-23T05:10:50.475Z,10.40
2022-10-23T05:11:50.534Z,11.80
2022-10-23T05:12:50.456Z,8.00
2022-10-23T05:13:50.463Z,14.30
2022-10-23T05:14:50.466Z,11.70
2022-10-23T05:15:50.976Z,12.70
2022-10-23T05:16:50.429Z,8.10
2022-10-23T05:17:50.495Z,13.20
2022-10-23T05:18:50.474Z,12.10
2022-10-23T05:19:50.396Z,12.30
2022-10-23T05:20:50.387Z,11.00
2022-10-23T05:21:50.372Z,9.60
2022-10-23T05:22:50.366Z,15.50
2022-10-23T05:23:50.457Z,8.50
2022-10-23T05:24:50.796Z,11.10
2022-10-23T05:25:50.322Z,12.50
2022-10-23T05:26:57.365Z,11.50
2022-10-23T05:27:58.373Z,16.10
2022-10-23T05:28:50.273Z,11.20
2022-10-23T05:29:50.275Z,10.50
2022-10-23T05:30:50.252Z,8.60
2022-10-23T05:31:50.251Z,11.20
2022-10-23T05:32:50.234Z,12.90
2022-10-23T05:33:50.243Z,16.00
2022-10-23T05:34:50.225Z,8.80
2022-10-23T05:35:50.236Z,10.00
2022-10-23T05:36:50.239Z,12.70
2022-10-23T05:37:50.218Z,10.40
2022-10-23T05:38:50.204Z,10.50
2022-10-23T05:39:50.181Z,11.40
2022-10-23T05:40:50.151Z,11.90
2022-10-23T05:41:50.162Z,9.10
2022-10-23T05:42:50.217Z,13.30
2022-10-23T05:43:50.134Z,11.50
2022-10-23T05:44:50.113Z,12.10
2022-10-23T05:45:50.118Z,18.90
2022-10-23T05:46:50.085Z,12.70
2022-10-23T05:47:50.082Z,18.20
2022-10-23T05:48:50.130Z,11.80
2022-10-23T05:49:50.081Z,13.70
2022-10-23T05:50:50.033Z,11.20
2022-10-23T05:51:50.045Z,14.00
2022-10-23T05:52:50.016Z,9.60
2022-10-23T05:53:50.040Z,11.10
2022-10-23T05:54:50.000Z,11.20
2022-10-23T05:55:49.992Z,14.20
2022-10-23T05:56:49.976Z,11.10
2022-10-23T05:57:49.997Z,15.80
2022-10-23T05:58:49.972Z,12.50
2022-10-23T05:59:49.963Z,14.30
2022-10-23T06:00:50.164Z,10.80
2022-10-23T06:01:50.061Z,11.00
2022-10-23T06:02:49.902Z,16.80
2022-10-23T06:03:49.913Z,15.80
2022-10-23T06:04:49.892Z,12.70
2022-10-23T06:05:49.893Z,13.20
2022-10-23T06:06:49.874Z,16.20
2022-10-23T06:07:49.885Z,18.10
2022-10-23T06:08:49.862Z,15.70
2022-10-23T06:09:49.862Z,13.40
2022-10-23T06:10:49.845Z,20.50
2022-10-23T06:11:50.027Z,16.20
2022-10-23T06:12:49.821Z,12.40
2022-10-23T06:13:49.838Z,19.70
2022-10-23T06:14:49.779Z,14.80
2022-10-23T06:15:49.802Z,11.30
2022-10-23T06:16:49.750Z,12.20
2022-10-23T06:17:49.770Z,14.80
2022-10-23T06:18:49.969Z,13.80
2022-10-23T06:19:50.386Z,12.20
2022-10-23T06:20:49.711Z,13.50
2022-10-23T06:21:49.734Z,15.10
2022-10-23T06:22:49.688Z,17.30
2022-10-23T06:23:49.711Z,16.20
2022-10-23T06:24:50.630Z,12.60
2022-10-23T06:25:49.661Z,14.80
2022-10-23T06:26:49.642Z,12.50
2022-10-23T06:27:49.721Z,14.70
2022-10-23T06:28:49.620Z,15.60
2022-10-23T06:29:49.658Z,14.70
2022-10-23T06:30:49.590Z,16.70
2022-10-23T06:31:49.592Z,17.80
2022-10-23T06:32:49.588Z,12.70
2022-10-23T06:33:49.591Z,14.30
2022-10-23T06:34:49.617Z,11.10
2022-10-23T06:35:49.548Z,12.80
2022-10-23T06:36:49.541Z,13.60
2022-10-23T06:37:49.516Z,12.50
2022-10-23T06:38:49.750Z,12.30
2022-10-23T06:39:49.710Z,13.70
2022-10-23T06:40:49.723Z,13.30
2022-10-23T06:41:49.477Z,10.30
2022-10-23T06:42:49.500Z,18.30
2022-10-23T06:43:49.484Z,10.70
2022-10-23T06:44:49.440Z,14.60
2022-10-23T06:45:49.476Z,11.00
2022-10-23T06:46:49.428Z,9.90
2022-10-23T06:47:49.411Z,11.80
2022-10-23T06:48:49.663Z,14.50
2022-10-23T06:49:49.393Z,12.70
2022-10-23T06:50:49.379Z,16.10
2022-10-23T06:51:49.361Z,13.90
2022-10-23T06:52:49.370Z,15.80
2022-10-23T06:53:49.331Z,14.30
2022-10-23T06:54:49.340Z,11.30
2022-10-23T06:55:52.866Z,11.00
2022-10-23T06:56:50.317Z,12.00
2022-10-23T06:57:49.294Z,10.50
2022-10-23T06:58:50.150Z,13.10
2022-10-23T06:59:49.336Z,10.90
2022-10-23T07:00:49.335Z,13.60
2022-10-23T07:01:49.476Z,11.80
2022-10-23T07:02:49.260Z,13.00
2022-10-23T07:03:49.238Z,11.70
2022-10-23T07:04:49.239Z,11.40
2022-10-23T07:05:49.217Z,10.50
2022-10-23T07:06:49.202Z,9.40
2022-10-23T07:07:49.202Z,16.40
2022-10-23T07:08:49.210Z,11.20
2022-10-23T07:09:49.165Z,11.10
2022-10-23T07:10:49.159Z,10.40
2022-10-23T07:11:49.139Z,11.90
2022-10-23T07:12:49.151Z,10.00
2022-10-23T07:13:49.112Z,8.70
2022-10-23T07:14:49.129Z,8.80
2022-10-23T07:15:49.114Z,8.20
2022-10-23T07:16:49.218Z,8.10
2022-10-23T07:17:49.069Z,9.80
2022-10-23T07:18:49.269Z,8.80
2022-10-23T07:19:49.273Z,8.50
2022-10-23T07:20:49.246Z,12.40
2022-10-23T07:21:49.069Z,7.40
2022-10-23T07:22:49.020Z,8.50
2022-10-23T07:23:49.002Z,8.80
2022-10-23T07:24:48.999Z,11.80
2022-10-23T07:25:48.969Z,11.20
2022-10-23T07:27:48.957Z,10.00
2022-10-23T07:28:48.966Z,9.50
2022-10-23T07:29:48.948Z,13.50
2022-10-23T07:30:48.940Z,10.00
2022-10-23T07:31:49.038Z,7.40
2022-10-23T07:32:49.357Z,9.40
2022-10-23T07:33:48.892Z,10.40
2022-10-23T07:34:49.669Z,7.10
2022-10-23T07:35:48.886Z,7.00
2022-10-23T07:36:48.879Z,7.50
2022-10-23T07:37:48.990Z,11.60
2022-10-23T07:38:48.848Z,13.60
2022-10-23T07:39:49.119Z,13.20
2022-10-23T07:40:48.829Z,12.20
2022-10-23T07:41:48.902Z,6.30
2022-10-23T07:42:49.218Z,8.40
2022-10-23T07:43:49.321Z,9.20
2022-10-23T07:44:48.770Z,10.10
2022-10-23T07:45:48.760Z,10.40
2022-10-23T07:46:48.746Z,10.60
2022-10-23T07:47:48.751Z,9.30
2022-10-23T07:48:49.058Z,10.40
2022-10-23T07:49:49.267Z,9.50
2022-10-23T07:50:48.711Z,8.30
2022-10-23T07:51:51.339Z,10.10
2022-10-23T07:52:48.739Z,12.10
2022-10-23T07:53:48.662Z,8.40
2022-10-23T07:54:48.688Z,8.30
2022-10-23T07:55:48.640Z,10.50
2022-10-23T07:56:48.628Z,7.60
2022-10-23T07:57:48.618Z,6.90
2022-10-23T07:58:48.621Z,7.70
2022-10-23T07:59:48.931Z,7.50
2022-10-23T08:00:49.064Z,9.20
2022-10-23T08:01:51.435Z,6.90
2022-10-23T08:02:49.668Z,6.30
2022-10-23T08:03:48.557Z,5.70
2022-10-23T08:04:48.567Z,5.00
2022-10-23T08:05:49.169Z,6.00
2022-10-23T08:06:48.531Z,6.90
2022-10-23T08:07:49.288Z,4.90
2022-10-23T08:08:48.587Z,5.20
2022-10-23T08:09:48.509Z,8.70
2022-10-23T08:10:49.339Z,5.30
2022-10-23T08:11:48.469Z,6.50
2022-10-23T08:12:48.481Z,4.20
2022-10-23T08:13:48.509Z,4.70
2022-10-23T08:14:48.530Z,4.90
2022-10-23T08:15:48.449Z,5.70
2022-10-23T08:16:48.798Z,6.40
2022-10-23T08:17:48.405Z,4.80
2022-10-23T08:18:48.411Z,6.10
2022-10-23T08:19:48.947Z,6.40
2022-10-23T08:20:48.870Z,7.30
2022-10-23T08:21:48.769Z,6.30
2022-10-23T08:22:48.788Z,5.00
2022-10-23T08:23:49.002Z,6.50
2022-10-23T08:24:49.100Z,6.20
2022-10-23T08:25:48.309Z,7.60
2022-10-23T08:26:49.087Z,8.70
2022-10-23T08:27:50.363Z,5.30
2022-10-23T08:28:49.228Z,12.40
2022-10-23T08:29:48.259Z,5.00
2022-10-23T08:30:48.268Z,6.60
2022-10-23T08:31:48.245Z,4.20
2022-10-23T08:32:48.277Z,9.70
2022-10-23T08:34:48.218Z,5.40
2022-10-23T08:35:48.233Z,6.50
2022-10-23T08:36:48.188Z,8.70
2022-10-23T08:37:48.170Z,7.00
2022-10-23T08:38:48.198Z,6.30
2022-10-23T08:39:51.294Z,3.40
2022-10-23T08:40:49.159Z,5.10
2022-10-23T08:41:48.194Z,6.70
2022-10-23T08:42:48.209Z,8.20
2022-10-23T08:43:48.215Z,6.00
2022-10-23T08:44:48.218Z,4.50
2022-10-23T08:45:48.242Z,10.90
2022-10-23T08:46:48.236Z,5.70
2022-10-23T08:47:48.131Z,6.70
2022-10-23T08:48:48.138Z,5.70
2022-10-23T08:49:48.143Z,6.10
2022-10-23T08:50:48.048Z,5.20
2022-10-23T08:51:48.276Z,6.70
2022-10-23T08:52:48.168Z,4.90
2022-10-23T08:53:48.006Z,8.30
2022-10-23T08:54:48.288Z,3.90
2022-10-23T08:55:48.211Z,6.10
2022-10-23T08:56:48.199Z,5.20
2022-10-23T08:57:48.198Z,7.50
2022-10-23T08:58:48.253Z,4.50
2022-10-23T08:59:48.040Z,7.50
2022-10-23T09:00:47.985Z,3.90
2022-10-23T09:01:48.128Z,4.90
2022-10-23T09:02:48.031Z,9.20
2022-10-23T09:03:47.936Z,5.90
2022-10-23T09:04:48.050Z,5.30
2022-10-23T09:05:47.859Z,3.40
2022-10-23T09:06:47.854Z,4.20
2022-10-23T09:07:47.821Z,3.10
2022-10-23T09:08:47.831Z,6.40
2022-10-23T09:09:47.799Z,5.10
2022-10-23T09:10:50.660Z,6.20
2022-10-23T09:11:48.099Z,4.70
2022-10-23T09:12:48.131Z,6.70
2022-10-23T09:13:47.750Z,5.90
2022-10-23T09:14:47.758Z,5.50
2022-10-23T09:15:47.740Z,4.00
2022-10-23T09:16:47.828Z,5.10
2022-10-23T09:17:47.731Z,4.70
2022-10-23T09:18:48.175Z,5.30
2022-10-23T09:19:47.693Z,5.90
2022-10-23T09:20:47.689Z,4.60
2022-10-23T09:21:47.674Z,9.70
2022-10-23T09:22:48.110Z,6.30
2022-10-23T09:23:47.668Z,6.10
2022-10-23T09:24:52.927Z,5.10
2022-10-23T09:25:48.639Z,3.50
2022-10-23T09:26:47.628Z,6.10
2022-10-23T09:27:49.631Z,4.10
2022-10-23T09:28:47.629Z,5.90
2022-10-23T09:29:47.595Z,7.00
2022-10-23T09:30:47.587Z,5.00
2022-10-23T09:31:47.549Z,3.60
2022-10-23T09:32:47.579Z,7.10
2022-10-23T09:33:48.140Z,6.00
2022-10-23T09:34:47.548Z,4.10
2022-10-23T09:35:47.541Z,5.20
2022-10-23T09:36:47.563Z,6.10
2022-10-23T09:37:47.494Z,3.40
2022-10-23T09:38:48.282Z,3.50
2022-10-23T09:39:47.672Z,4.50
2022-10-23T09:40:47.492Z,7.80
2022-10-23T09:41:47.501Z,6.90
2022-10-23T09:42:47.512Z,6.80
2022-10-23T09:43:47.492Z,2.30
2022-10-23T09:44:47.512Z,5.90
2022-10-23T09:45:47.423Z,3.80
2022-10-23T09:46:47.410Z,3.00
2022-10-23T09:47:47.383Z,7.50
2022-10-23T09:48:47.390Z,7.80
2022-10-23T09:49:47.365Z,6.10
2022-10-23T09:50:47.357Z,8.60
2022-10-23T09:51:47.355Z,2.80
2022-10-23T09:52:47.328Z,5.50
2022-10-23T09:53:47.327Z,4.60
2022-10-23T09:54:47.580Z,4.20
2022-10-23T09:55:47.582Z,4.90
2022-10-23T09:57:47.528Z,5.40
2022-10-23T09:58:47.273Z,6.00
2022-10-23T09:59:47.328Z,6.40
2022-10-23T10:00:48.576Z,2.90
2022-10-23T10:01:47.338Z,4.80
2022-10-23T10:02:47.222Z,10.80
2022-10-23T10:03:47.539Z,8.80
2022-10-23T10:04:47.430Z,3.00
2022-10-23T10:05:47.293Z,4.60
2022-10-23T10:06:47.359Z,4.10
2022-10-23T10:07:47.152Z,6.60
2022-10-23T10:08:47.163Z,6.30
2022-10-23T10:09:47.131Z,5.70
2022-10-23T10:10:47.130Z,4.20
2022-10-23T10:11:47.183Z,5.20
2022-10-23T10:12:47.145Z,3.80
2022-10-23T10:13:47.104Z,7.40
2022-10-23T10:14:47.211Z,4.00
2022-10-23T10:15:47.083Z,2.90
2022-10-23T10:16:47.063Z,9.10
2022-10-23T10:17:47.052Z,3.20
2022-10-23T10:18:47.072Z,5.10
2022-10-23T10:19:47.046Z,3.40
2022-10-23T10:20:47.022Z,3.40
2022-10-23T10:21:47.067Z,7.80
2022-10-23T10:22:47.050Z,6.20
2022-10-23T10:23:46.974Z,3.00
2022-10-23T10:24:47.046Z,4.60
2022-10-23T10:25:52.015Z,5.80
2022-10-23T10:26:47.948Z,3.80
2022-10-23T10:27:46.964Z,8.40
2022-10-23T10:28:46.939Z,3.40
2022-10-23T10:29:47.014Z,4.40
2022-10-23T10:30:47.303Z,4.90
2022-10-23T10:31:50.658Z,4.10
2022-10-23T10:32:47.883Z,5.10
2022-10-23T10:33:47.332Z,4.10
2022-10-23T10:34:46.896Z,4.40
2022-10-23T10:35:46.884Z,4.40
2022-10-23T10:36:46.840Z,2.40
2022-10-23T10:37:49.353Z,4.90
2022-10-23T10:38:46.824Z,5.70
2022-10-23T10:39:46.803Z,6.30
2022-10-23T10:40:46.810Z,6.30
2022-10-23T10:41:46.762Z,4.20
2022-10-23T10:42:46.774Z,7.40
2022-10-23T10:43:47.301Z,2.20
2022-10-23T10:44:47.004Z,6.60
2022-10-23T10:45:47.225Z,5.10
2022-10-23T10:46:46.804Z,3.50
2022-10-23T10:47:46.705Z,4.80
2022-10-23T10:48:46.714Z,3.30
2022-10-23T10:49:46.708Z,3.30
2022-10-23T10:50:46.684Z,3.80
2022-10-23T10:51:46.674Z,2.70
2022-10-23T10:52:49.098Z,4.60
2022-10-23T10:53:46.684Z,3.50
2022-10-23T10:54:46.624Z,2.50
2022-10-23T10:55:46.644Z,4.40
2022-10-23T10:56:46.603Z,3.40
2022-10-23T10:57:46.904Z,3.90
2022-10-23T10:58:46.578Z,7.30
2022-10-23T10:59:46.600Z,5.50
2022-10-23T11:00:46.587Z,6.20
2022-10-23T11:01:46.720Z,7.60
2022-10-23T11:02:46.541Z,4.40
2022-10-23T11:03:46.534Z,6.00
2022-10-23T11:04:46.735Z,5.50
2022-10-23T11:05:46.675Z,2.10
2022-10-23T11:06:46.636Z,6.10
2022-10-23T11:07:46.647Z,6.60
2022-10-23T11:08:56.530Z,6.60
2022-10-23T11:09:47.477Z,4.70
2022-10-23T11:10:46.454Z,5.30
2022-10-23T11:11:46.457Z,5.10
2022-10-23T11:12:46.425Z,14.60
2022-10-23T11:13:46.426Z,3.50
2022-10-23T11:14:46.395Z,4.40
2022-10-23T11:15:46.450Z,3.20
2022-10-23T11:16:46.395Z,3.10
2022-10-23T11:17:46.573Z,4.30
2022-10-23T11:18:46.368Z,4.10
2022-10-23T11:19:46.357Z,12.90
2022-10-23T11:20:46.341Z,3.70
2022-10-23T11:21:46.343Z,2.90
2022-10-23T11:22:46.437Z,4.10
2022-10-23T11:23:46.316Z,5.90
2022-10-23T11:24:49.454Z,5.50
2022-10-23T11:25:46.317Z,5.50
2022-10-23T11:26:46.286Z,3.40
2022-10-23T11:27:46.393Z,3.50
2022-10-23T11:28:46.267Z,3.10
2022-10-23T11:29:46.247Z,4.30
2022-10-23T11:30:46.236Z,3.30
2022-10-23T11:31:46.253Z,3.00
2022-10-23T11:32:46.246Z,5.70
2022-10-23T11:33:46.216Z,4.00
2022-10-23T11:34:46.166Z,3.60
2022-10-23T11:35:46.219Z,7.40
2022-10-23T11:36:46.154Z,4.60
2022-10-23T11:37:46.396Z,4.30
2022-10-23T11:38:46.167Z,4.70
2022-10-23T11:39:46.137Z,6.60
2022-10-23T11:40:46.145Z,3.30
2022-10-23T11:41:46.115Z,5.50
2022-10-23T11:42:46.444Z,4.60
2022-10-23T11:43:46.115Z,2.90
2022-10-23T11:44:46.069Z,6.90
2022-10-23T11:45:46.088Z,5.40
2022-10-23T11:46:46.107Z,5.30
2022-10-23T11:47:46.038Z,5.40
2022-10-23T11:48:46.017Z,3.00
2022-10-23T11:49:46.038Z,7.50
2022-10-23T11:50:46.038Z,4.50
2022-10-23T11:51:46.000Z,1.40
2022-10-23T11:52:56.211Z,6.10
2022-10-23T11:53:46.993Z,5.10
2022-10-23T11:54:45.966Z,6.10
2022-10-23T11:55:45.958Z,6.20
2022-10-23T11:56:45.926Z,7.30
2022-10-23T11:57:45.940Z,7.00
2022-10-23T11:58:46.586Z,3.30
2022-10-23T11:59:45.918Z,7.70
2022-10-23T12:00:45.888Z,3.20
2022-10-23T12:01:46.024Z,5.90
2022-10-23T12:02:46.286Z,3.30
2022-10-23T12:03:45.859Z,10.20
2022-10-23T12:04:45.941Z,3.40
2022-10-23T12:05:45.930Z,6.50
2022-10-23T12:06:45.818Z,5.40
2022-10-23T12:07:46.402Z,4.70
2022-10-23T12:08:45.801Z,7.10
2022-10-23T12:09:45.829Z,6.70
2022-10-23T12:10:45.789Z,6.50
2022-10-23T12:11:45.778Z,7.10
2022-10-23T12:12:45.771Z,7.90
2022-10-23T12:13:45.748Z,3.90
2022-10-23T12:14:45.731Z,7.40
2022-10-23T12:15:45.740Z,7.00
2022-10-23T12:16:45.707Z,6.10
2022-10-23T12:17:46.103Z,4.80
2022-10-23T12:18:45.870Z,6.00
2022-10-23T12:19:45.708Z,6.30
2022-10-23T12:20:45.668Z,7.00
2022-10-23T12:21:45.679Z,6.70
2022-10-23T12:22:45.652Z,5.20
2022-10-23T12:23:48.086Z,5.50
2022-10-23T12:24:45.621Z,6.20
2022-10-23T12:25:45.624Z,5.00
2022-10-23T12:26:45.780Z,5.30
2022-10-23T12:27:46.007Z,5.00
2022-10-23T12:28:45.569Z,4.70
2022-10-23T12:29:45.579Z,3.90
2022-10-23T12:30:45.655Z,3.70
2022-10-23T12:31:47.838Z,4.00
2022-10-23T12:32:45.793Z,3.70
2022-10-23T12:33:45.537Z,3.90
2022-10-23T12:34:45.500Z,3.80
2022-10-23T12:35:45.540Z,4.10
2022-10-23T12:36:45.490Z,9.70
2022-10-23T12:37:45.481Z,5.60
2022-10-23T12:38:45.461Z,5.50
2022-10-23T12:39:45.464Z,6.50
2022-10-23T12:40:45.433Z,5.30
2022-10-23T12:41:45.465Z,4.80
2022-10-23T12:42:45.688Z,6.90
2022-10-23T12:43:45.422Z,7.40
2022-10-23T12:44:45.387Z,5.90
2022-10-23T12:45:45.390Z,8.10
2022-10-23T12:46:45.372Z,5.60
2022-10-23T12:47:45.702Z,3.90
2022-10-23T12:48:45.378Z,7.30
2022-10-23T12:49:45.350Z,4.30
2022-10-23T12:50:45.320Z,5.80
2022-10-23T12:51:45.332Z,4.30
2022-10-23T12:52:45.455Z,6.00
2022-10-23T12:53:45.342Z,4.70
2022-10-23T12:54:45.271Z,3.60
2022-10-23T12:55:45.285Z,3.80
2022-10-23T12:56:45.255Z,2.90
2022-10-23T12:57:45.545Z,4.20
2022-10-23T12:58:45.260Z,5.80
2022-10-23T12:59:45.242Z,3.90
2022-10-23T13:00:45.282Z,5.50
2022-10-23T13:01:47.938Z,5.50
2022-10-23T13:02:46.433Z,4.60
2022-10-23T13:03:45.209Z,9.10
2022-10-23T13:04:45.612Z,7.80
2022-10-23T13:05:45.332Z,3.60
2022-10-23T13:06:45.575Z,5.00
2022-10-23T13:07:45.580Z,7.60